Sparta, TN (38583)

4:34 PM CST on February 08, 2016 (GMT -0600)
Bakers Crossroads | | Change Station
CLOSE
Current Station
Personal Weather Station
Location: Sparta, TN
Elevation: 1027 ft
Nearby Weather Stations
Active Advisory: Winter Weather Advisory

Elev 1027 ft 36.01 °N, 85.56 °W | Updated 9 seconds ago

Overcast
Overcast
37.2 °F
Feels Like 37 °F
N
2.5
Wind Variable Wind from SW
Gusts 4.9 mph

Today
High -- | Low -- °F
--% Chance of Precip.
Yesterday
High -- | Low -- °F
Precip. -- in
Pressure 29.76 in
Visibility 10.0 miles
Clouds Few 3500 ft
Mostly Cloudy 4600 ft
Windchill 37 °F
Dew Point 28 °F
Humidity 70%
Rainfall 0.00 in
Snow Depth Not available.
6:36 AM 5:15 PM
New Moon, 0% visible
METAR KSRB 082215Z AUTO 26007KT 10SM FEW035 BKN046 03/M03 A2976 RMK
Pressure 29.76 in
Visibility 10.0 miles
Clouds Few 3500 ft
Mostly Cloudy 4600 ft
Windchill 37 °F
Dew Point 28 °F
Humidity 70%
Rainfall 0.00 in
Snow Depth Not available.
6:36 AM 5:15 PM
New Moon, 0% visible
METAR KSRB 082215Z AUTO 26007KT 10SM FEW035 BKN046 03/M03 A2976 RMK

10-Day Weather Forecast

Almanac

Astronomy

Feb. 08, 2016 Rise Set
Actual Time
Civil Twilight
Nautical Twilight
Astronomical Twilight
Moon
Length of Visible Light
Length of Day
Tomorrow will be .
, % of the Moon is Illuminated

Today's Extremes

State Highs State Lows

Community

WunderPhotos

Upload Photos

1,891,518 photos uploaded!

WunderBlog® & News

Nearby

Air Quality

  Air Quality AQ Index Pollutant
Not available.

Snow Depth

Station Depth Elevation

Earthquake Activity

City Distance Mag. Time & Date
Minimum magnitude displayed is 2.5.

Coastal Water Temperatures

Place Temperature

Stations

Nearby Weather Stations

Station Location Temp. Windchill Dew Point Humidity Wind Precip. Elev Updated Type
                   

Watches & Warnings

Winter Weather Advisory
Issued: 1:40 PM CST Feb. 8, 2016 – National Weather Service

... Winter Weather Advisory remains in effect until 6 am CST
Wednesday...

* timing... noon today until 6 am CST Wednesday.

* Main impact... hazardous travel conditions across the Cumberland
Plateau.

* Total snow accumulations... 1 to 2 inches with locally higher
amounts around 3 inches possible.

Precautionary/preparedness actions...

A Winter Weather Advisory for snow means that periods of snow
will cause primarily travel difficulties. Be prepared for snow
covered roads and limited visibilities... and use caution while
driving.